sensor_id;sensor_type;location;lat;lon;timestamp;pressure;altitude;pressure_sealevel;temperature;humidity
64294;BME280;50636;45.596;5.258;2023-04-28T00:00:41;98572.50;;;19.42;47.66
64294;BME280;50636;45.596;5.258;2023-04-28T00:03:07;98580.50;;;19.42;47.44
64294;BME280;50636;45.596;5.258;2023-04-28T00:05:32;98559.97;;;19.32;47.83
64294;BME280;50636;45.596;5.258;2023-04-28T00:07:58;98557.00;;;19.29;47.80
64294;BME280;50636;45.596;5.258;2023-04-28T00:10:24;98540.78;;;19.30;47.99
64294;BME280;50636;45.596;5.258;2023-04-28T00:12:50;98554.59;;;19.22;47.75
64294;BME280;50636;45.596;5.258;2023-04-28T00:15:16;98547.38;;;19.12;48.12
64294;BME280;50636;45.596;5.258;2023-04-28T00:17:41;98545.16;;;18.99;48.52
64294;BME280;50636;45.596;5.258;2023-04-28T00:20:08;98533.19;;;18.96;48.84
64294;BME280;50636;45.596;5.258;2023-04-28T00:22:34;98540.88;;;18.93;48.83
64294;BME280;50636;45.596;5.258;2023-04-28T00:25:00;98533.16;;;18.86;48.71
64294;BME280;50636;45.596;5.258;2023-04-28T00:27:25;98518.97;;;18.75;48.52
64294;BME280;50636;45.596;5.258;2023-04-28T00:29:52;98550.28;;;18.68;48.99
64294;BME280;50636;45.596;5.258;2023-04-28T00:32:18;98582.38;;;18.56;49.41
64294;BME280;50636;45.596;5.258;2023-04-28T00:34:44;98565.94;;;18.60;49.24
64294;BME280;50636;45.596;5.258;2023-04-28T00:37:10;98540.38;;;18.53;49.13
64294;BME280;50636;45.596;5.258;2023-04-28T00:39:36;98535.56;;;18.50;49.62
64294;BME280;50636;45.596;5.258;2023-04-28T00:42:02;98531.06;;;18.56;49.08
64294;BME280;50636;45.596;5.258;2023-04-28T00:44:28;98546.72;;;18.47;49.13
64294;BME280;50636;45.596;5.258;2023-04-28T00:46:55;98533.91;;;18.39;49.46
64294;BME280;50636;45.596;5.258;2023-04-28T00:49:22;98525.94;;;18.39;49.42
64294;BME280;50636;45.596;5.258;2023-04-28T00:51:47;98530.91;;;18.30;49.78
64294;BME280;50636;45.596;5.258;2023-04-28T00:54:13;98533.25;;;18.27;49.85
64294;BME280;50636;45.596;5.258;2023-04-28T00:56:39;98523.16;;;18.24;50.34
64294;BME280;50636;45.596;5.258;2023-04-28T00:59:05;98550.19;;;18.21;50.01
64294;BME280;50636;45.596;5.258;2023-04-28T01:01:31;98530.25;;;18.13;50.11
64294;BME280;50636;45.596;5.258;2023-04-28T01:03:57;98528.31;;;18.03;50.41
64294;BME280;50636;45.596;5.258;2023-04-28T01:06:23;98514.50;;;18.06;50.22
64294;BME280;50636;45.596;5.258;2023-04-28T01:08:49;98522.69;;;18.00;50.61
64294;BME280;50636;45.596;5.258;2023-04-28T01:11:16;98517.06;;;17.96;51.39
64294;BME280;50636;45.596;5.258;2023-04-28T01:13:41;98520.78;;;17.95;51.05
64294;BME280;50636;45.596;5.258;2023-04-28T01:16:07;98530.34;;;17.96;50.62
64294;BME280;50636;45.596;5.258;2023-04-28T01:18:33;98523.91;;;17.87;51.04
64294;BME280;50636;45.596;5.258;2023-04-28T01:20:59;98524.31;;;17.78;51.04
64294;BME280;50636;45.596;5.258;2023-04-28T01:23:25;98524.88;;;17.81;50.69
64294;BME280;50636;45.596;5.258;2023-04-28T01:25:51;98525.41;;;17.83;50.31
64294;BME280;50636;45.596;5.258;2023-04-28T01:28:17;98493.53;;;17.77;50.62
64294;BME280;50636;45.596;5.258;2023-04-28T01:30:43;98526.47;;;17.82;50.28
64294;BME280;50636;45.596;5.258;2023-04-28T01:33:09;98515.78;;;17.76;50.37
64294;BME280;50636;45.596;5.258;2023-04-28T01:35:34;98524.06;;;17.80;50.18
64294;BME280;50636;45.596;5.258;2023-04-28T01:38:00;98498.59;;;17.79;50.19
64294;BME280;50636;45.596;5.258;2023-04-28T01:40:26;98531.19;;;17.74;50.49
64294;BME280;50636;45.596;5.258;2023-04-28T01:42:52;98542.91;;;17.78;50.22
64294;BME280;50636;45.596;5.258;2023-04-28T01:45:18;98532.03;;;17.80;50.48
64294;BME280;50636;45.596;5.258;2023-04-28T01:47:43;98562.47;;;17.72;50.73
64294;BME280;50636;45.596;5.258;2023-04-28T01:50:09;98578.91;;;17.69;50.72
64294;BME280;50636;45.596;5.258;2023-04-28T01:52:35;98556.75;;;17.58;51.18
64294;BME280;50636;45.596;5.258;2023-04-28T01:55:01;98588.56;;;17.53;51.40
64294;BME280;50636;45.596;5.258;2023-04-28T01:57:27;98564.16;;;17.56;51.69
64294;BME280;50636;45.596;5.258;2023-04-28T01:59:53;98572.41;;;17.55;51.58
64294;BME280;50636;45.596;5.258;2023-04-28T02:02:19;98568.38;;;17.52;51.78
64294;BME280;50636;45.596;5.258;2023-04-28T02:04:45;98569.19;;;17.53;51.85
64294;BME280;50636;45.596;5.258;2023-04-28T02:07:11;98563.44;;;17.61;51.88
64294;BME280;50636;45.596;5.258;2023-04-28T02:09:37;98560.88;;;17.71;51.02
64294;BME280;50636;45.596;5.258;2023-04-28T02:12:03;98558.00;;;17.73;50.90
64294;BME280;50636;45.596;5.258;2023-04-28T02:14:28;98565.13;;;17.72;50.64
64294;BME280;50636;45.596;5.258;2023-04-28T02:16:57;98581.56;;;17.69;50.92
64294;BME280;50636;45.596;5.258;2023-04-28T02:19:23;98559.09;;;17.77;50.75
64294;BME280;50636;45.596;5.258;2023-04-28T02:21:49;98581.59;;;17.74;50.34
64294;BME280;50636;45.596;5.258;2023-04-28T02:24:15;98569.09;;;17.70;49.92
64294;BME280;50636;45.596;5.258;2023-04-28T02:26:41;98582.56;;;17.63;50.73
64294;BME280;50636;45.596;5.258;2023-04-28T02:29:07;98585.94;;;17.58;50.22
64294;BME280;50636;45.596;5.258;2023-04-28T02:31:32;98589.72;;;17.63;49.90
64294;BME280;50636;45.596;5.258;2023-04-28T02:33:58;98601.69;;;17.65;50.36
64294;BME280;50636;45.596;5.258;2023-04-28T02:36:24;98598.84;;;17.72;49.76
64294;BME280;50636;45.596;5.258;2023-04-28T02:38:52;98606.69;;;17.84;49.60
64294;BME280;50636;45.596;5.258;2023-04-28T02:41:18;98604.91;;;17.89;49.12
64294;BME280;50636;45.596;5.258;2023-04-28T02:43:43;98610.81;;;17.96;49.09
64294;BME280;50636;45.596;5.258;2023-04-28T02:46:09;98607.69;;;18.05;49.15
64294;BME280;50636;45.596;5.258;2023-04-28T02:48:36;98619.41;;;18.09;48.65
64294;BME280;50636;45.596;5.258;2023-04-28T02:51:02;98611.75;;;18.12;48.46
64294;BME280;50636;45.596;5.258;2023-04-28T02:53:27;98617.94;;;18.18;48.27
64294;BME280;50636;45.596;5.258;2023-04-28T02:55:53;98621.69;;;18.22;48.11
64294;BME280;50636;45.596;5.258;2023-04-28T02:58:19;98622.44;;;18.17;48.18
64294;BME280;50636;45.596;5.258;2023-04-28T03:00:45;98622.75;;;18.21;48.51
64294;BME280;50636;45.596;5.258;2023-04-28T03:03:11;98623.09;;;18.30;48.62
64294;BME280;50636;45.596;5.258;2023-04-28T03:05:37;98631.16;;;18.40;47.58
64294;BME280;50636;45.596;5.258;2023-04-28T03:08:03;98625.63;;;18.47;47.34
64294;BME280;50636;45.596;5.258;2023-04-28T03:10:29;98614.97;;;18.47;47.94
64294;BME280;50636;45.596;5.258;2023-04-28T03:12:55;98607.28;;;18.45;48.02
64294;BME280;50636;45.596;5.258;2023-04-28T03:15:21;98599.84;;;18.47;47.34
64294;BME280;50636;45.596;5.258;2023-04-28T03:17:47;98607.44;;;18.33;48.26
64294;BME280;50636;45.596;5.258;2023-04-28T03:20:13;98609.00;;;18.29;48.37
64294;BME280;50636;45.596;5.258;2023-04-28T03:22:39;98602.88;;;18.29;48.28
64294;BME280;50636;45.596;5.258;2023-04-28T03:25:05;98590.09;;;18.26;48.81
64294;BME280;50636;45.596;5.258;2023-04-28T03:27:40;98592.16;;;18.19;48.78
64294;BME280;50636;45.596;5.258;2023-04-28T03:30:07;98603.31;;;18.15;48.57
64294;BME280;50636;45.596;5.258;2023-04-28T03:32:32;98613.06;;;18.10;49.08
64294;BME280;50636;45.596;5.258;2023-04-28T03:34:58;98606.91;;;18.04;48.94
64294;BME280;50636;45.596;5.258;2023-04-28T03:37:24;98597.91;;;18.05;49.18
64294;BME280;50636;45.596;5.258;2023-04-28T03:39:50;98615.66;;;18.05;49.22
64294;BME280;50636;45.596;5.258;2023-04-28T03:42:16;98620.88;;;17.94;49.39
64294;BME280;50636;45.596;5.258;2023-04-28T03:44:42;98611.75;;;17.85;50.04
64294;BME280;50636;45.596;5.258;2023-04-28T03:47:08;98608.22;;;17.80;50.35
64294;BME280;50636;45.596;5.258;2023-04-28T03:49:33;98612.66;;;17.74;50.61
64294;BME280;50636;45.596;5.258;2023-04-28T03:51:59;98609.97;;;17.69;50.49
64294;BME280;50636;45.596;5.258;2023-04-28T03:54:26;98616.06;;;17.69;51.19
64294;BME280;50636;45.596;5.258;2023-04-28T03:56:51;98608.88;;;17.65;51.42
64294;BME280;50636;45.596;5.258;2023-04-28T03:59:17;98607.50;;;17.62;51.45
64294;BME280;50636;45.596;5.258;2023-04-28T04:01:43;98604.09;;;17.67;50.96
64294;BME280;50636;45.596;5.258;2023-04-28T04:04:09;98605.03;;;17.55;50.75
64294;BME280;50636;45.596;5.258;2023-04-28T04:06:35;98602.81;;;17.47;50.98
64294;BME280;50636;45.596;5.258;2023-04-28T04:09:00;98605.22;;;17.49;51.12
64294;BME280;50636;45.596;5.258;2023-04-28T04:11:26;98600.59;;;17.39;51.43
64294;BME280;50636;45.596;5.258;2023-04-28T04:13:52;98583.63;;;17.40;51.61
64294;BME280;50636;45.596;5.258;2023-04-28T04:16:18;98606.38;;;17.36;51.57
64294;BME280;50636;45.596;5.258;2023-04-28T04:18:43;98605.78;;;17.29;51.79
64294;BME280;50636;45.596;5.258;2023-04-28T04:21:09;98606.81;;;17.28;51.87
64294;BME280;50636;45.596;5.258;2023-04-28T04:23:35;98594.22;;;17.18;52.01
64294;BME280;50636;45.596;5.258;2023-04-28T04:26:01;98609.28;;;17.12;52.61
64294;BME280;50636;45.596;5.258;2023-04-28T04:28:27;98610.50;;;17.05;52.92
64294;BME280;50636;45.596;5.258;2023-04-28T04:30:52;98606.63;;;17.12;52.65
64294;BME280;50636;45.596;5.258;2023-04-28T04:33:18;98610.41;;;17.16;53.02
64294;BME280;50636;45.596;5.258;2023-04-28T04:35:44;98607.75;;;17.16;52.75
64294;BME280;50636;45.596;5.258;2023-04-28T04:38:10;98614.63;;;17.17;52.71
64294;BME280;50636;45.596;5.258;2023-04-28T04:40:35;98609.34;;;17.17;52.73
64294;BME280;50636;45.596;5.258;2023-04-28T04:43:01;98625.31;;;17.23;52.71
64294;BME280;50636;45.596;5.258;2023-04-28T04:45:27;98610.69;;;17.20;52.42
64294;BME280;50636;45.596;5.258;2023-04-28T04:47:52;98602.72;;;17.20;52.45
64294;BME280;50636;45.596;5.258;2023-04-28T04:50:18;98596.44;;;17.26;52.71
64294;BME280;50636;45.596;5.258;2023-04-28T04:52:44;98600.09;;;17.42;53.26
64294;BME280;50636;45.596;5.258;2023-04-28T04:55:10;98620.28;;;17.43;51.64
64294;BME280;50636;45.596;5.258;2023-04-28T04:57:36;98611.53;;;17.43;51.81
64294;BME280;50636;45.596;5.258;2023-04-28T05:00:03;98608.91;;;17.48;51.45
64294;BME280;50636;45.596;5.258;2023-04-28T05:02:29;98603.59;;;17.48;51.05
64294;BME280;50636;45.596;5.258;2023-04-28T05:04:55;98595.53;;;17.60;51.32
64294;BME280;50636;45.596;5.258;2023-04-28T05:07:20;98602.72;;;17.64;50.84
64294;BME280;50636;45.596;5.258;2023-04-28T05:09:46;98602.81;;;17.69;51.20
64294;BME280;50636;45.596;5.258;2023-04-28T05:12:12;98602.06;;;17.74;50.41
64294;BME280;50636;45.596;5.258;2023-04-28T05:14:38;98619.31;;;17.76;50.61
64294;BME280;50636;45.596;5.258;2023-04-28T05:17:03;98625.03;;;17.85;50.40
64294;BME280;50636;45.596;5.258;2023-04-28T05:19:29;98625.59;;;17.87;50.55
64294;BME280;50636;45.596;5.258;2023-04-28T05:21:55;98623.03;;;17.98;50.22
64294;BME280;50636;45.596;5.258;2023-04-28T05:24:21;98618.31;;;18.05;49.86
64294;BME280;50636;45.596;5.258;2023-04-28T05:26:50;98620.72;;;18.06;49.86
64294;BME280;50636;45.596;5.258;2023-04-28T05:29:16;98627.69;;;18.12;49.48
64294;BME280;50636;45.596;5.258;2023-04-28T05:31:42;98607.53;;;18.44;49.18
64294;BME280;50636;45.596;5.258;2023-04-28T05:34:08;98620.06;;;19.28;47.58
64294;BME280;50636;45.596;5.258;2023-04-28T05:36:34;98623.56;;;20.07;45.62
64294;BME280;50636;45.596;5.258;2023-04-28T05:39:00;98617.19;;;20.29;45.07
64294;BME280;50636;45.596;5.258;2023-04-28T05:41:26;98618.53;;;20.37;44.86
64294;BME280;50636;45.596;5.258;2023-04-28T05:43:51;98620.56;;;21.32;42.86
64294;BME280;50636;45.596;5.258;2023-04-28T05:46:17;98615.41;;;22.45;40.13
64294;BME280;50636;45.596;5.258;2023-04-28T05:48:44;98628.53;;;23.35;38.24
64294;BME280;50636;45.596;5.258;2023-04-28T05:51:10;98627.31;;;22.92;37.98
64294;BME280;50636;45.596;5.258;2023-04-28T05:53:36;98646.72;;;22.00;39.74
64294;BME280;50636;45.596;5.258;2023-04-28T05:56:02;98646.16;;;21.53;41.50
64294;BME280;50636;45.596;5.258;2023-04-28T05:58:28;98634.66;;;21.53;41.09
64294;BME280;50636;45.596;5.258;2023-04-28T06:00:54;98648.72;;;21.74;40.89
64294;BME280;50636;45.596;5.258;2023-04-28T06:03:20;98635.38;;;22.19;40.14
64294;BME280;50636;45.596;5.258;2023-04-28T06:05:46;98636.53;;;22.47;39.32
64294;BME280;50636;45.596;5.258;2023-04-28T06:08:11;98642.38;;;22.83;38.16
64294;BME280;50636;45.596;5.258;2023-04-28T06:10:37;98629.28;;;23.59;37.21
64294;BME280;50636;45.596;5.258;2023-04-28T06:13:03;98647.63;;;24.33;36.06
64294;BME280;50636;45.596;5.258;2023-04-28T06:15:31;98646.91;;;24.79;34.96
64294;BME280;50636;45.596;5.258;2023-04-28T06:17:57;98634.31;;;25.49;33.83
64294;BME280;50636;45.596;5.258;2023-04-28T06:20:26;98652.41;;;25.16;34.13
64294;BME280;50636;45.596;5.258;2023-04-28T06:22:52;98651.31;;;24.37;35.24
64294;BME280;50636;45.596;5.258;2023-04-28T06:25:18;98665.78;;;23.55;36.36
64294;BME280;50636;45.596;5.258;2023-04-28T06:27:43;98655.25;;;22.81;37.82
64294;BME280;50636;45.596;5.258;2023-04-28T06:30:16;98662.00;;;22.39;39.26
64294;BME280;50636;45.596;5.258;2023-04-28T06:32:43;98668.56;;;22.18;40.47
64294;BME280;50636;45.596;5.258;2023-04-28T06:35:09;98666.47;;;22.04;40.06
64294;BME280;50636;45.596;5.258;2023-04-28T06:37:35;98660.63;;;21.97;40.04
64294;BME280;50636;45.596;5.258;2023-04-28T06:40:01;98656.59;;;22.05;40.27
64294;BME280;50636;45.596;5.258;2023-04-28T06:42:27;98654.03;;;22.98;38.34
64294;BME280;50636;45.596;5.258;2023-04-28T06:44:52;98645.13;;;24.56;36.07
64294;BME280;50636;45.596;5.258;2023-04-28T06:47:18;98643.06;;;25.96;32.92
64294;BME280;50636;45.596;5.258;2023-04-28T06:49:44;98646.72;;;26.37;33.02
64294;BME280;50636;45.596;5.258;2023-04-28T06:52:12;98643.91;;;26.64;31.31
64294;BME280;50636;45.596;5.258;2023-04-28T06:54:39;98648.13;;;27.10;31.27
64294;BME280;50636;45.596;5.258;2023-04-28T06:57:04;98650.00;;;27.41;31.01
64294;BME280;50636;45.596;5.258;2023-04-28T06:59:30;98658.06;;;27.01;31.04
64294;BME280;50636;45.596;5.258;2023-04-28T07:01:56;98665.50;;;27.27;30.85
64294;BME280;50636;45.596;5.258;2023-04-28T07:04:22;98655.22;;;28.04;30.38
64294;BME280;50636;45.596;5.258;2023-04-28T07:06:48;98658.84;;;28.78;29.21
64294;BME280;50636;45.596;5.258;2023-04-28T07:09:14;98669.16;;;29.61;28.60
64294;BME280;50636;45.596;5.258;2023-04-28T07:11:40;98662.38;;;30.27;27.30
64294;BME280;50636;45.596;5.258;2023-04-28T07:14:06;98666.28;;;31.05;26.82
64294;BME280;50636;45.596;5.258;2023-04-28T07:16:33;98665.78;;;32.14;24.47
64294;BME280;50636;45.596;5.258;2023-04-28T07:18:58;98658.94;;;32.32;24.35
64294;BME280;50636;45.596;5.258;2023-04-28T07:21:24;98661.38;;;32.09;24.68
64294;BME280;50636;45.596;5.258;2023-04-28T07:23:50;98664.38;;;31.42;24.68
64294;BME280;50636;45.596;5.258;2023-04-28T07:26:16;98663.53;;;31.91;24.48
64294;BME280;50636;45.596;5.258;2023-04-28T07:28:43;98666.03;;;32.09;24.59
64294;BME280;50636;45.596;5.258;2023-04-28T07:31:09;98663.94;;;32.58;23.90
64294;BME280;50636;45.596;5.258;2023-04-28T07:33:35;98657.09;;;32.08;24.38
64294;BME280;50636;45.596;5.258;2023-04-28T07:36:00;98665.75;;;32.26;24.45
64294;BME280;50636;45.596;5.258;2023-04-28T07:38:26;98674.25;;;32.97;23.55
64294;BME280;50636;45.596;5.258;2023-04-28T07:40:52;98668.28;;;33.07;23.31
64294;BME280;50636;45.596;5.258;2023-04-28T07:43:18;98663.44;;;33.64;22.66
64294;BME280;50636;45.596;5.258;2023-04-28T07:45:44;98668.75;;;33.09;23.15
64294;BME280;50636;45.596;5.258;2023-04-28T07:48:14;98679.81;;;32.03;23.61
64294;BME280;50636;45.596;5.258;2023-04-28T07:50:40;98674.50;;;31.09;25.28
64294;BME280;50636;45.596;5.258;2023-04-28T07:53:06;98699.63;;;31.30;25.21
64294;BME280;50636;45.596;5.258;2023-04-28T07:55:33;98699.81;;;32.80;24.00
64294;BME280;50636;45.596;5.258;2023-04-28T07:57:59;98695.91;;;33.89;22.53
64294;BME280;50636;45.596;5.258;2023-04-28T08:00:25;98688.94;;;34.11;21.70
64294;BME280;50636;45.596;5.258;2023-04-28T08:02:51;98700.66;;;33.76;22.25
64294;BME280;50636;45.596;5.258;2023-04-28T08:05:17;98698.88;;;32.88;22.85
64294;BME280;50636;45.596;5.258;2023-04-28T08:07:42;98699.03;;;32.51;23.77
64294;BME280;50636;45.596;5.258;2023-04-28T08:10:09;98705.59;;;32.22;24.02
64294;BME280;50636;45.596;5.258;2023-04-28T08:12:36;98708.97;;;32.19;23.94
64294;BME280;50636;45.596;5.258;2023-04-28T08:15:03;98704.69;;;32.18;24.01
64294;BME280;50636;45.596;5.258;2023-04-28T08:17:29;98711.00;;;32.62;24.36
64294;BME280;50636;45.596;5.258;2023-04-28T08:19:55;98719.03;;;33.15;23.01
64294;BME280;50636;45.596;5.258;2023-04-28T08:22:20;98719.22;;;32.78;23.73
64294;BME280;50636;45.596;5.258;2023-04-28T08:24:46;98711.16;;;31.89;24.88
64294;BME280;50636;45.596;5.258;2023-04-28T08:27:12;98728.44;;;31.35;25.31
64294;BME280;50636;45.596;5.258;2023-04-28T08:29:38;98714.03;;;31.55;25.48
64294;BME280;50636;45.596;5.258;2023-04-28T08:32:04;98715.91;;;31.30;25.50
64294;BME280;50636;45.596;5.258;2023-04-28T08:34:33;98722.03;;;30.94;26.15
64294;BME280;50636;45.596;5.258;2023-04-28T08:36:59;98725.78;;;30.89;26.19
64294;BME280;50636;45.596;5.258;2023-04-28T08:39:25;98723.59;;;30.61;26.40
64294;BME280;50636;45.596;5.258;2023-04-28T08:41:52;98726.72;;;29.71;27.37
64294;BME280;50636;45.596;5.258;2023-04-28T08:44:18;98734.47;;;28.69;28.90
64294;BME280;50636;45.596;5.258;2023-04-28T08:46:45;98739.34;;;28.06;30.18
64294;BME280;50636;45.596;5.258;2023-04-28T08:49:15;98743.38;;;28.52;29.67
64294;BME280;50636;45.596;5.258;2023-04-28T08:51:59;98744.03;;;29.40;28.78
64294;BME280;50636;45.596;5.258;2023-04-28T08:54:30;98748.34;;;29.79;27.98
64294;BME280;50636;45.596;5.258;2023-04-28T08:56:56;98745.13;;;29.86;27.97
64294;BME280;50636;45.596;5.258;2023-04-28T08:59:23;98747.56;;;30.30;27.21
64294;BME280;50636;45.596;5.258;2023-04-28T09:01:49;98732.31;;;30.88;26.59
64294;BME280;50636;45.596;5.258;2023-04-28T09:04:18;98724.91;;;32.33;25.23
64294;BME280;50636;45.596;5.258;2023-04-28T09:06:44;98720.69;;;33.68;25.04
64294;BME280;50636;45.596;5.258;2023-04-28T09:09:29;98703.00;;;33.93;23.24
64294;BME280;50636;45.596;5.258;2023-04-28T09:11:59;98714.81;;;34.17;22.72
64294;BME280;50636;45.596;5.258;2023-04-28T09:14:35;98701.94;;;33.82;23.17
64294;BME280;50636;45.596;5.258;2023-04-28T09:17:09;98683.81;;;33.70;23.33
64294;BME280;50636;45.596;5.258;2023-04-28T09:19:36;98685.81;;;33.73;23.70
64294;BME280;50636;45.596;5.258;2023-04-28T09:22:04;98687.16;;;33.63;23.76
64294;BME280;50636;45.596;5.258;2023-04-28T09:24:39;98683.13;;;34.12;22.90
64294;BME280;50636;45.596;5.258;2023-04-28T09:27:08;98692.88;;;33.94;22.52
64294;BME280;50636;45.596;5.258;2023-04-28T09:29:51;98684.03;;;32.86;24.07
64294;BME280;50636;45.596;5.258;2023-04-28T09:32:19;98699.31;;;32.74;23.81
64294;BME280;50636;45.596;5.258;2023-04-28T09:34:50;98701.09;;;33.46;23.67
64294;BME280;50636;45.596;5.258;2023-04-28T09:37:21;98693.47;;;33.68;24.13
64294;BME280;50636;45.596;5.258;2023-04-28T09:39:49;98694.44;;;33.43;23.40
64294;BME280;50636;45.596;5.258;2023-04-28T09:42:35;98698.47;;;33.18;24.46
64294;BME280;50636;45.596;5.258;2023-04-28T09:45:05;98695.50;;;33.39;23.68
64294;BME280;50636;45.596;5.258;2023-04-28T09:47:32;98712.59;;;33.55;23.15
64294;BME280;50636;45.596;5.258;2023-04-28T09:50:04;98705.84;;;33.17;24.44
64294;BME280;50636;45.596;5.258;2023-04-28T09:52:34;98697.81;;;32.77;24.38
64294;BME280;50636;45.596;5.258;2023-04-28T09:55:02;98686.13;;;33.20;23.91
64294;BME280;50636;45.596;5.258;2023-04-28T09:57:33;98684.72;;;33.11;23.94
64294;BME280;50636;45.596;5.258;2023-04-28T10:00:00;98673.28;;;32.89;24.36
64294;BME280;50636;45.596;5.258;2023-04-28T10:02:27;98669.03;;;32.60;25.27
64294;BME280;50636;45.596;5.258;2023-04-28T10:04:53;98662.03;;;32.75;24.88
64294;BME280;50636;45.596;5.258;2023-04-28T10:07:20;98643.28;;;32.86;24.29
64294;BME280;50636;45.596;5.258;2023-04-28T10:09:47;98653.28;;;32.25;25.63
64294;BME280;50636;45.596;5.258;2023-04-28T10:12:21;98658.97;;;32.20;26.15
64294;BME280;50636;45.596;5.258;2023-04-28T10:14:48;98668.94;;;32.56;25.27
64294;BME280;50636;45.596;5.258;2023-04-28T10:17:16;98656.56;;;32.59;25.59
64294;BME280;50636;45.596;5.258;2023-04-28T10:19:46;98677.50;;;32.30;25.96
64294;BME280;50636;45.596;5.258;2023-04-28T10:25:35;98649.78;;;32.53;25.21
64294;BME280;50636;45.596;5.258;2023-04-28T10:28:07;98656.25;;;32.48;25.80
64294;BME280;50636;45.596;5.258;2023-04-28T10:30:34;98644.91;;;32.58;26.80
64294;BME280;50636;45.596;5.258;2023-04-28T10:38:07;98636.47;;;31.05;27.60
64294;BME280;50636;45.596;5.258;2023-04-28T10:43:04;98640.16;;;31.00;27.50
64294;BME280;50636;45.596;5.258;2023-04-28T10:48:22;98638.03;;;31.43;26.28
64294;BME280;50636;45.596;5.258;2023-04-28T10:56:21;98643.47;;;31.43;26.24
64294;BME280;50636;45.596;5.258;2023-04-28T10:58:57;98621.44;;;31.57;26.53
64294;BME280;50636;45.596;5.258;2023-04-28T11:01:27;98617.22;;;31.84;26.32
64294;BME280;50636;45.596;5.258;2023-04-28T11:03:59;98612.19;;;31.33;26.10
64294;BME280;50636;45.596;5.258;2023-04-28T11:14:36;98570.53;;;30.43;28.95
64294;BME280;50636;45.596;5.258;2023-04-28T11:17:06;98595.81;;;30.26;27.94
64294;BME280;50636;45.596;5.258;2023-04-28T11:19:38;98592.13;;;30.10;28.23
64294;BME280;50636;45.596;5.258;2023-04-28T11:22:18;98582.50;;;30.21;27.57
64294;BME280;50636;45.596;5.258;2023-04-28T11:25:02;98579.25;;;30.61;27.98
64294;BME280;50636;45.596;5.258;2023-04-28T11:27:30;98576.00;;;30.34;29.19
64294;BME280;50636;45.596;5.258;2023-04-28T11:29:57;98579.34;;;30.64;28.03
64294;BME280;50636;45.596;5.258;2023-04-28T11:32:34;98574.22;;;30.38;27.40
64294;BME280;50636;45.596;5.258;2023-04-28T11:35:00;98577.38;;;30.07;27.74
64294;BME280;50636;45.596;5.258;2023-04-28T11:37:26;98571.84;;;30.37;28.59
64294;BME280;50636;45.596;5.258;2023-04-28T11:39:52;98567.38;;;30.53;27.45
64294;BME280;50636;45.596;5.258;2023-04-28T11:42:18;98572.34;;;30.51;26.73
64294;BME280;50636;45.596;5.258;2023-04-28T11:44:51;98531.94;;;30.13;26.75
64294;BME280;50636;45.596;5.258;2023-04-28T11:47:37;98556.00;;;29.93;28.33
64294;BME280;50636;45.596;5.258;2023-04-28T11:50:03;98560.75;;;29.96;27.69
64294;BME280;50636;45.596;5.258;2023-04-28T11:52:29;98550.53;;;30.35;27.58
64294;BME280;50636;45.596;5.258;2023-04-28T11:54:56;98555.97;;;30.60;27.82
64294;BME280;50636;45.596;5.258;2023-04-28T11:57:24;98574.44;;;30.33;27.25
64294;BME280;50636;45.596;5.258;2023-04-28T11:59:51;98557.31;;;29.87;29.56
64294;BME280;50636;45.596;5.258;2023-04-28T12:02:27;98562.13;;;30.02;29.82
64294;BME280;50636;45.596;5.258;2023-04-28T12:05:03;98558.31;;;30.37;28.54
64294;BME280;50636;45.596;5.258;2023-04-28T12:07:42;98551.47;;;30.64;27.59
64294;BME280;50636;45.596;5.258;2023-04-28T12:10:15;98549.16;;;31.12;26.95
64294;BME280;50636;45.596;5.258;2023-04-28T12:12:42;98545.66;;;31.11;26.50
64294;BME280;50636;45.596;5.258;2023-04-28T12:15:08;98545.16;;;30.60;28.18
64294;BME280;50636;45.596;5.258;2023-04-28T12:17:40;98563.84;;;30.07;28.07
64294;BME280;50636;45.596;5.258;2023-04-28T12:20:08;98552.00;;;29.70;27.60
64294;BME280;50636;45.596;5.258;2023-04-28T12:22:48;98564.31;;;29.07;28.57
64294;BME280;50636;45.596;5.258;2023-04-28T12:25:16;98585.94;;;28.69;30.06
64294;BME280;50636;45.596;5.258;2023-04-28T12:28:04;98546.44;;;28.38;30.10
64294;BME280;50636;45.596;5.258;2023-04-28T12:30:35;98571.69;;;28.25;30.79
64294;BME280;50636;45.596;5.258;2023-04-28T12:33:20;98591.53;;;28.38;30.05
64294;BME280;50636;45.596;5.258;2023-04-28T12:35:46;98572.47;;;28.43;30.18
64294;BME280;50636;45.596;5.258;2023-04-28T12:38:13;98582.16;;;28.35;31.57
64294;BME280;50636;45.596;5.258;2023-04-28T12:40:40;98595.53;;;28.32;32.26
64294;BME280;50636;45.596;5.258;2023-04-28T12:43:06;98553.50;;;28.13;30.08
64294;BME280;50636;45.596;5.258;2023-04-28T12:45:32;98570.13;;;27.80;30.61
64294;BME280;50636;45.596;5.258;2023-04-28T12:47:58;98582.50;;;27.64;32.04
64294;BME280;50636;45.596;5.258;2023-04-28T12:50:24;98576.31;;;27.72;30.61
64294;BME280;50636;45.596;5.258;2023-04-28T12:52:51;98587.13;;;27.98;31.88
64294;BME280;50636;45.596;5.258;2023-04-28T12:55:17;98571.09;;;28.19;32.18
64294;BME280;50636;45.596;5.258;2023-04-28T12:57:43;98593.78;;;27.83;32.35
64294;BME280;50636;45.596;5.258;2023-04-28T13:00:09;98582.97;;;27.75;31.08
64294;BME280;50636;45.596;5.258;2023-04-28T13:02:35;98575.53;;;27.72;33.06
64294;BME280;50636;45.596;5.258;2023-04-28T13:05:02;98572.16;;;27.40;31.52
64294;BME280;50636;45.596;5.258;2023-04-28T13:07:29;98564.06;;;27.31;32.21
64294;BME280;50636;45.596;5.258;2023-04-28T13:09:56;98563.41;;;27.34;33.03
64294;BME280;50636;45.596;5.258;2023-04-28T13:12:22;98555.34;;;27.52;31.79
64294;BME280;50636;45.596;5.258;2023-04-28T13:14:48;98547.91;;;27.66;32.20
64294;BME280;50636;45.596;5.258;2023-04-28T13:17:14;98542.22;;;27.67;31.97
64294;BME280;50636;45.596;5.258;2023-04-28T13:19:40;98537.94;;;27.49;32.39
64294;BME280;50636;45.596;5.258;2023-04-28T13:22:06;98526.72;;;27.16;35.00
64294;BME280;50636;45.596;5.258;2023-04-28T13:24:33;98551.25;;;26.97;32.90
64294;BME280;50636;45.596;5.258;2023-04-28T13:27:00;98537.25;;;26.55;35.36